sensor_id;sensor_type;location;lat;lon;timestamp;P1;durP1;ratioP1;P2;durP2;ratioP2
22476;SDS011;65006;51.698;-0.292;2024-01-30T00:02:08;22.27;;;6.47;;
22476;SDS011;65006;51.698;-0.292;2024-01-30T00:04:34;26.45;;;6.25;;
22476;SDS011;65006;51.698;-0.292;2024-01-30T00:07:00;22.20;;;5.93;;
22476;SDS011;65006;51.698;-0.292;2024-01-30T00:09:26;18.42;;;5.85;;
22476;SDS011;65006;51.698;-0.292;2024-01-30T00:11:52;21.05;;;6.68;;
22476;SDS011;65006;51.698;-0.292;2024-01-30T00:14:18;20.63;;;5.60;;
22476;SDS011;65006;51.698;-0.292;2024-01-30T00:16:44;17.17;;;6.10;;
22476;SDS011;65006;51.698;-0.292;2024-01-30T00:19:10;11.93;;;6.57;;
22476;SDS011;65006;51.698;-0.292;2024-01-30T00:21:36;20.60;;;6.30;;
22476;SDS011;65006;51.698;-0.292;2024-01-30T00:24:02;18.60;;;5.60;;
22476;SDS011;65006;51.698;-0.292;2024-01-30T00:26:29;15.80;;;5.10;;
22476;SDS011;65006;51.698;-0.292;2024-01-30T00:28:55;15.73;;;4.88;;
22476;SDS011;65006;51.698;-0.292;2024-01-30T00:31:21;14.80;;;5.10;;
22476;SDS011;65006;51.698;-0.292;2024-01-30T00:33:47;19.00;;;5.97;;
22476;SDS011;65006;51.698;-0.292;2024-01-30T00:36:13;19.92;;;4.90;;
22476;SDS011;65006;51.698;-0.292;2024-01-30T00:38:39;14.35;;;4.78;;
22476;SDS011;65006;51.698;-0.292;2024-01-30T00:41:08;13.73;;;5.10;;
22476;SDS011;65006;51.698;-0.292;2024-01-30T00:43:34;13.35;;;4.80;;
22476;SDS011;65006;51.698;-0.292;2024-01-30T00:46:00;13.95;;;5.10;;
22476;SDS011;65006;51.698;-0.292;2024-01-30T00:48:26;11.88;;;4.30;;
22476;SDS011;65006;51.698;-0.292;2024-01-30T00:50:53;12.75;;;4.85;;
22476;SDS011;65006;51.698;-0.292;2024-01-30T00:53:20;14.18;;;4.18;;
22476;SDS011;65006;51.698;-0.292;2024-01-30T00:55:46;10.45;;;3.83;;
22476;SDS011;65006;51.698;-0.292;2024-01-30T00:58:12;11.75;;;3.85;;
22476;SDS011;65006;51.698;-0.292;2024-01-30T01:00:38;10.45;;;3.47;;
22476;SDS011;65006;51.698;-0.292;2024-01-30T01:03:05;9.10;;;2.75;;
22476;SDS011;65006;51.698;-0.292;2024-01-30T01:05:31;9.85;;;3.33;;
22476;SDS011;65006;51.698;-0.292;2024-01-30T01:07:57;6.10;;;2.83;;
22476;SDS011;65006;51.698;-0.292;2024-01-30T01:10:23;7.95;;;1.85;;
22476;SDS011;65006;51.698;-0.292;2024-01-30T01:12:49;5.18;;;1.83;;
22476;SDS011;65006;51.698;-0.292;2024-01-30T01:15:15;5.22;;;2.05;;
22476;SDS011;65006;51.698;-0.292;2024-01-30T01:17:41;4.65;;;1.40;;
22476;SDS011;65006;51.698;-0.292;2024-01-30T01:20:07;7.72;;;1.23;;
22476;SDS011;65006;51.698;-0.292;2024-01-30T01:22:35;4.38;;;1.10;;
22476;SDS011;65006;51.698;-0.292;2024-01-30T01:25:03;5.10;;;1.48;;
22476;SDS011;65006;51.698;-0.292;2024-01-30T01:27:32;2.70;;;1.08;;
22476;SDS011;65006;51.698;-0.292;2024-01-30T01:29:59;3.05;;;0.88;;
22476;SDS011;65006;51.698;-0.292;2024-01-30T01:32:25;3.03;;;0.95;;
22476;SDS011;65006;51.698;-0.292;2024-01-30T01:34:51;4.88;;;1.17;;
22476;SDS011;65006;51.698;-0.292;2024-01-30T01:37:17;3.70;;;0.80;;
22476;SDS011;65006;51.698;-0.292;2024-01-30T01:39:43;2.25;;;0.90;;
22476;SDS011;65006;51.698;-0.292;2024-01-30T01:42:09;5.85;;;0.77;;
22476;SDS011;65006;51.698;-0.292;2024-01-30T01:44:35;6.18;;;0.98;;
22476;SDS011;65006;51.698;-0.292;2024-01-30T01:47:01;3.00;;;0.90;;
22476;SDS011;65006;51.698;-0.292;2024-01-30T01:49:27;6.95;;;0.73;;
22476;SDS011;65006;51.698;-0.292;2024-01-30T01:51:54;3.80;;;0.68;;
22476;SDS011;65006;51.698;-0.292;2024-01-30T01:54:23;6.05;;;0.70;;
22476;SDS011;65006;51.698;-0.292;2024-01-30T01:56:51;6.32;;;0.55;;
22476;SDS011;65006;51.698;-0.292;2024-01-30T01:59:17;3.80;;;0.50;;
22476;SDS011;65006;51.698;-0.292;2024-01-30T02:01:43;3.38;;;0.52;;
22476;SDS011;65006;51.698;-0.292;2024-01-30T02:04:14;3.83;;;0.52;;
22476;SDS011;65006;51.698;-0.292;2024-01-30T02:06:40;9.10;;;0.80;;
22476;SDS011;65006;51.698;-0.292;2024-01-30T02:09:06;6.72;;;0.57;;
22476;SDS011;65006;51.698;-0.292;2024-01-30T02:11:34;3.97;;;0.70;;
22476;SDS011;65006;51.698;-0.292;2024-01-30T02:14:04;2.47;;;0.55;;
22476;SDS011;65006;51.698;-0.292;2024-01-30T02:16:30;5.78;;;1.02;;
22476;SDS011;65006;51.698;-0.292;2024-01-30T02:18:56;5.25;;;0.50;;
22476;SDS011;65006;51.698;-0.292;2024-01-30T02:21:22;5.18;;;0.65;;
22476;SDS011;65006;51.698;-0.292;2024-01-30T02:23:48;3.67;;;0.60;;
22476;SDS011;65006;51.698;-0.292;2024-01-30T02:26:15;3.67;;;0.80;;
22476;SDS011;65006;51.698;-0.292;2024-01-30T02:28:41;2.33;;;0.40;;
22476;SDS011;65006;51.698;-0.292;2024-01-30T02:31:07;3.83;;;0.60;;
22476;SDS011;65006;51.698;-0.292;2024-01-30T02:33:33;2.10;;;0.50;;
22476;SDS011;65006;51.698;-0.292;2024-01-30T02:35:59;2.97;;;0.55;;
22476;SDS011;65006;51.698;-0.292;2024-01-30T02:38:25;2.13;;;0.50;;
22476;SDS011;65006;51.698;-0.292;2024-01-30T02:40:51;4.50;;;0.52;;
22476;SDS011;65006;51.698;-0.292;2024-01-30T02:43:17;3.10;;;0.68;;
22476;SDS011;65006;51.698;-0.292;2024-01-30T02:45:43;2.78;;;0.43;;
22476;SDS011;65006;51.698;-0.292;2024-01-30T02:48:09;3.10;;;0.70;;
22476;SDS011;65006;51.698;-0.292;2024-01-30T02:50:36;2.55;;;0.30;;
22476;SDS011;65006;51.698;-0.292;2024-01-30T02:53:02;2.33;;;0.38;;
22476;SDS011;65006;51.698;-0.292;2024-01-30T02:55:28;8.45;;;0.80;;
22476;SDS011;65006;51.698;-0.292;2024-01-30T02:57:54;4.35;;;0.50;;
22476;SDS011;65006;51.698;-0.292;2024-01-30T03:00:20;3.67;;;0.40;;
22476;SDS011;65006;51.698;-0.292;2024-01-30T03:02:46;1.83;;;0.30;;
22476;SDS011;65006;51.698;-0.292;2024-01-30T03:05:12;2.08;;;0.57;;
22476;SDS011;65006;51.698;-0.292;2024-01-30T03:07:38;3.65;;;0.60;;
22476;SDS011;65006;51.698;-0.292;2024-01-30T03:10:04;2.65;;;0.65;;
22476;SDS011;65006;51.698;-0.292;2024-01-30T03:12:32;4.28;;;0.55;;
22476;SDS011;65006;51.698;-0.292;2024-01-30T03:14:58;5.45;;;0.60;;
22476;SDS011;65006;51.698;-0.292;2024-01-30T03:17:24;1.17;;;0.45;;
22476;SDS011;65006;51.698;-0.292;2024-01-30T03:19:50;3.05;;;0.45;;
22476;SDS011;65006;51.698;-0.292;2024-01-30T03:22:16;2.13;;;0.40;;
22476;SDS011;65006;51.698;-0.292;2024-01-30T03:24:42;3.63;;;0.30;;
22476;SDS011;65006;51.698;-0.292;2024-01-30T03:27:09;1.30;;;0.40;;
22476;SDS011;65006;51.698;-0.292;2024-01-30T03:29:35;3.35;;;1.08;;
22476;SDS011;65006;51.698;-0.292;2024-01-30T03:32:01;3.42;;;0.60;;
22476;SDS011;65006;51.698;-0.292;2024-01-30T03:34:28;1.88;;;0.32;;
22476;SDS011;65006;51.698;-0.292;2024-01-30T03:36:54;2.35;;;0.70;;
22476;SDS011;65006;51.698;-0.292;2024-01-30T03:39:20;3.53;;;0.60;;
22476;SDS011;65006;51.698;-0.292;2024-01-30T03:41:46;3.55;;;0.28;;
22476;SDS011;65006;51.698;-0.292;2024-01-30T03:44:12;6.22;;;0.65;;
22476;SDS011;65006;51.698;-0.292;2024-01-30T03:46:38;2.70;;;0.63;;
22476;SDS011;65006;51.698;-0.292;2024-01-30T03:49:04;3.67;;;0.30;;
22476;SDS011;65006;51.698;-0.292;2024-01-30T03:51:30;3.08;;;0.30;;
22476;SDS011;65006;51.698;-0.292;2024-01-30T03:53:56;1.38;;;0.40;;
22476;SDS011;65006;51.698;-0.292;2024-01-30T03:56:22;2.53;;;0.55;;
22476;SDS011;65006;51.698;-0.292;2024-01-30T03:58:50;2.40;;;0.35;;
22476;SDS011;65006;51.698;-0.292;2024-01-30T04:01:16;1.90;;;0.20;;
22476;SDS011;65006;51.698;-0.292;2024-01-30T04:03:42;1.05;;;0.20;;
22476;SDS011;65006;51.698;-0.292;2024-01-30T04:06:11;0.15;;;0.15;;
22476;SDS011;65006;51.698;-0.292;2024-01-30T04:11:04;1.60;;;0.30;;
22476;SDS011;65006;51.698;-0.292;2024-01-30T04:13:33;1.58;;;0.20;;
22476;SDS011;65006;51.698;-0.292;2024-01-30T04:15:59;1.25;;;0.20;;
22476;SDS011;65006;51.698;-0.292;2024-01-30T04:18:28;4.30;;;0.40;;
22476;SDS011;65006;51.698;-0.292;2024-01-30T04:20:54;2.75;;;0.30;;
22476;SDS011;65006;51.698;-0.292;2024-01-30T04:23:20;1.88;;;0.20;;
22476;SDS011;65006;51.698;-0.292;2024-01-30T04:25:46;3.22;;;0.20;;
22476;SDS011;65006;51.698;-0.292;2024-01-30T04:28:12;1.98;;;0.40;;
22476;SDS011;65006;51.698;-0.292;2024-01-30T04:30:39;0.85;;;0.30;;
22476;SDS011;65006;51.698;-0.292;2024-01-30T04:33:06;0.30;;;0.30;;
22476;SDS011;65006;51.698;-0.292;2024-01-30T04:35:32;0.77;;;0.35;;
22476;SDS011;65006;51.698;-0.292;2024-01-30T04:37:58;0.60;;;0.30;;
22476;SDS011;65006;51.698;-0.292;2024-01-30T04:40:24;2.03;;;0.45;;
22476;SDS011;65006;51.698;-0.292;2024-01-30T04:42:50;1.83;;;0.60;;
22476;SDS011;65006;51.698;-0.292;2024-01-30T04:45:17;2.80;;;0.80;;
22476;SDS011;65006;51.698;-0.292;2024-01-30T04:47:45;1.45;;;0.38;;
22476;SDS011;65006;51.698;-0.292;2024-01-30T04:50:11;1.17;;;0.50;;
22476;SDS011;65006;51.698;-0.292;2024-01-30T04:52:37;2.35;;;0.40;;
22476;SDS011;65006;51.698;-0.292;2024-01-30T04:55:03;0.80;;;0.50;;
22476;SDS011;65006;51.698;-0.292;2024-01-30T04:57:29;4.82;;;1.33;;
22476;SDS011;65006;51.698;-0.292;2024-01-30T04:59:56;2.15;;;0.40;;
22476;SDS011;65006;51.698;-0.292;2024-01-30T05:02:22;1.08;;;0.47;;
22476;SDS011;65006;51.698;-0.292;2024-01-30T05:04:48;2.90;;;0.70;;
22476;SDS011;65006;51.698;-0.292;2024-01-30T05:07:14;2.15;;;0.70;;
22476;SDS011;65006;51.698;-0.292;2024-01-30T05:09:40;1.23;;;0.60;;
22476;SDS011;65006;51.698;-0.292;2024-01-30T05:12:06;1.75;;;0.88;;
22476;SDS011;65006;51.698;-0.292;2024-01-30T05:14:32;1.88;;;0.60;;
22476;SDS011;65006;51.698;-0.292;2024-01-30T05:16:58;1.40;;;0.50;;
22476;SDS011;65006;51.698;-0.292;2024-01-30T05:19:24;4.55;;;1.00;;
22476;SDS011;65006;51.698;-0.292;2024-01-30T05:21:50;2.55;;;0.55;;
22476;SDS011;65006;51.698;-0.292;2024-01-30T05:24:16;4.15;;;0.70;;
22476;SDS011;65006;51.698;-0.292;2024-01-30T05:26:43;0.95;;;0.60;;
22476;SDS011;65006;51.698;-0.292;2024-01-30T05:29:09;2.85;;;1.10;;
22476;SDS011;65006;51.698;-0.292;2024-01-30T05:31:35;1.08;;;0.60;;
22476;SDS011;65006;51.698;-0.292;2024-01-30T05:34:02;2.10;;;0.73;;
22476;SDS011;65006;51.698;-0.292;2024-01-30T05:36:28;1.58;;;0.75;;
22476;SDS011;65006;51.698;-0.292;2024-01-30T05:38:55;4.22;;;0.73;;
22476;SDS011;65006;51.698;-0.292;2024-01-30T05:41:22;2.38;;;0.70;;
22476;SDS011;65006;51.698;-0.292;2024-01-30T05:43:48;2.80;;;0.98;;
22476;SDS011;65006;51.698;-0.292;2024-01-30T05:46:14;3.88;;;0.70;;
22476;SDS011;65006;51.698;-0.292;2024-01-30T05:48:40;1.60;;;0.63;;
22476;SDS011;65006;51.698;-0.292;2024-01-30T05:51:07;4.60;;;0.95;;
22476;SDS011;65006;51.698;-0.292;2024-01-30T05:53:33;0.93;;;0.80;;
22476;SDS011;65006;51.698;-0.292;2024-01-30T05:56:01;3.40;;;0.80;;
22476;SDS011;65006;51.698;-0.292;2024-01-30T05:58:27;2.35;;;1.15;;
22476;SDS011;65006;51.698;-0.292;2024-01-30T06:00:53;2.92;;;1.15;;
22476;SDS011;65006;51.698;-0.292;2024-01-30T06:03:20;1.95;;;1.08;;
22476;SDS011;65006;51.698;-0.292;2024-01-30T06:05:47;1.40;;;0.85;;
22476;SDS011;65006;51.698;-0.292;2024-01-30T06:08:13;2.55;;;1.60;;
22476;SDS011;65006;51.698;-0.292;2024-01-30T06:10:39;3.90;;;1.70;;
22476;SDS011;65006;51.698;-0.292;2024-01-30T06:13:05;2.95;;;1.55;;
22476;SDS011;65006;51.698;-0.292;2024-01-30T06:15:31;5.00;;;1.70;;
22476;SDS011;65006;51.698;-0.292;2024-01-30T06:17:58;5.68;;;2.10;;
22476;SDS011;65006;51.698;-0.292;2024-01-30T06:20:25;6.75;;;2.40;;
22476;SDS011;65006;51.698;-0.292;2024-01-30T06:22:51;3.25;;;2.00;;
22476;SDS011;65006;51.698;-0.292;2024-01-30T06:25:17;6.03;;;2.22;;
22476;SDS011;65006;51.698;-0.292;2024-01-30T06:27:43;4.88;;;2.63;;
22476;SDS011;65006;51.698;-0.292;2024-01-30T06:30:09;6.65;;;2.70;;
22476;SDS011;65006;51.698;-0.292;2024-01-30T06:32:35;4.15;;;2.70;;
22476;SDS011;65006;51.698;-0.292;2024-01-30T06:35:01;4.65;;;2.60;;
22476;SDS011;65006;51.698;-0.292;2024-01-30T06:37:28;4.72;;;2.45;;
22476;SDS011;65006;51.698;-0.292;2024-01-30T06:39:54;3.53;;;2.63;;
22476;SDS011;65006;51.698;-0.292;2024-01-30T06:42:20;6.90;;;2.97;;
22476;SDS011;65006;51.698;-0.292;2024-01-30T06:44:46;5.40;;;2.88;;
22476;SDS011;65006;51.698;-0.292;2024-01-30T06:47:12;8.32;;;2.55;;
22476;SDS011;65006;51.698;-0.292;2024-01-30T06:49:39;4.28;;;2.20;;
22476;SDS011;65006;51.698;-0.292;2024-01-30T06:52:07;3.40;;;2.33;;
22476;SDS011;65006;51.698;-0.292;2024-01-30T06:54:33;6.68;;;2.55;;
22476;SDS011;65006;51.698;-0.292;2024-01-30T06:56:59;3.95;;;2.33;;
22476;SDS011;65006;51.698;-0.292;2024-01-30T06:59:25;4.10;;;2.60;;
22476;SDS011;65006;51.698;-0.292;2024-01-30T07:01:51;4.25;;;2.30;;
22476;SDS011;65006;51.698;-0.292;2024-01-30T07:04:17;2.42;;;1.60;;
22476;SDS011;65006;51.698;-0.292;2024-01-30T07:06:43;2.03;;;1.67;;
22476;SDS011;65006;51.698;-0.292;2024-01-30T07:09:11;3.40;;;1.88;;
22476;SDS011;65006;51.698;-0.292;2024-01-30T07:11:38;2.28;;;1.65;;
22476;SDS011;65006;51.698;-0.292;2024-01-30T07:14:04;2.47;;;1.58;;
22476;SDS011;65006;51.698;-0.292;2024-01-30T07:16:30;3.13;;;1.50;;
22476;SDS011;65006;51.698;-0.292;2024-01-30T07:18:56;1.38;;;1.10;;
22476;SDS011;65006;51.698;-0.292;2024-01-30T07:21:22;3.03;;;0.82;;
22476;SDS011;65006;51.698;-0.292;2024-01-30T07:23:53;1.58;;;0.70;;
22476;SDS011;65006;51.698;-0.292;2024-01-30T07:26:19;0.85;;;0.65;;
22476;SDS011;65006;51.698;-0.292;2024-01-30T07:28:45;0.50;;;0.50;;
22476;SDS011;65006;51.698;-0.292;2024-01-30T07:31:12;0.93;;;0.45;;
22476;SDS011;65006;51.698;-0.292;2024-01-30T07:33:38;0.40;;;0.40;;
22476;SDS011;65006;51.698;-0.292;2024-01-30T07:36:04;0.52;;;0.52;;
22476;SDS011;65006;51.698;-0.292;2024-01-30T07:38:33;1.90;;;0.50;;
22476;SDS011;65006;51.698;-0.292;2024-01-30T07:40:59;0.70;;;0.50;;
22476;SDS011;65006;51.698;-0.292;2024-01-30T07:43:25;0.45;;;0.45;;
22476;SDS011;65006;51.698;-0.292;2024-01-30T07:45:51;4.30;;;0.43;;
22476;SDS011;65006;51.698;-0.292;2024-01-30T07:48:17;0.43;;;0.43;;
22476;SDS011;65006;51.698;-0.292;2024-01-30T07:50:43;0.57;;;0.47;;
22476;SDS011;65006;51.698;-0.292;2024-01-30T07:53:09;0.80;;;0.40;;
22476;SDS011;65006;51.698;-0.292;2024-01-30T07:55:35;0.30;;;0.30;;
22476;SDS011;65006;51.698;-0.292;2024-01-30T07:58:01;0.55;;;0.30;;
22476;SDS011;65006;51.698;-0.292;2024-01-30T08:00:29;1.10;;;0.40;;
22476;SDS011;65006;51.698;-0.292;2024-01-30T08:02:55;0.85;;;0.30;;
22476;SDS011;65006;51.698;-0.292;2024-01-30T08:05:21;0.77;;;0.40;;
22476;SDS011;65006;51.698;-0.292;2024-01-30T08:07:48;0.32;;;0.32;;
22476;SDS011;65006;51.698;-0.292;2024-01-30T08:12:41;0.30;;;0.30;;
22476;SDS011;65006;51.698;-0.292;2024-01-30T08:15:07;0.85;;;0.45;;
22476;SDS011;65006;51.698;-0.292;2024-01-30T08:17:33;1.00;;;0.47;;
22476;SDS011;65006;51.698;-0.292;2024-01-30T08:19:59;2.58;;;0.60;;
22476;SDS011;65006;51.698;-0.292;2024-01-30T08:22:25;1.38;;;0.65;;
22476;SDS011;65006;51.698;-0.292;2024-01-30T08:24:51;0.50;;;0.47;;
22476;SDS011;65006;51.698;-0.292;2024-01-30T08:27:17;1.75;;;0.45;;
22476;SDS011;65006;51.698;-0.292;2024-01-30T08:29:43;1.15;;;0.43;;
22476;SDS011;65006;51.698;-0.292;2024-01-30T08:32:09;1.63;;;0.35;;
22476;SDS011;65006;51.698;-0.292;2024-01-30T08:34:35;4.07;;;0.82;;
22476;SDS011;65006;51.698;-0.292;2024-01-30T08:37:02;1.30;;;1.20;;
22476;SDS011;65006;51.698;-0.292;2024-01-30T08:39:28;1.23;;;0.68;;
22476;SDS011;65006;51.698;-0.292;2024-01-30T08:41:54;1.85;;;0.60;;
22476;SDS011;65006;51.698;-0.292;2024-01-30T08:44:20;1.58;;;0.50;;
22476;SDS011;65006;51.698;-0.292;2024-01-30T08:46:46;1.42;;;0.60;;
22476;SDS011;65006;51.698;-0.292;2024-01-30T08:49:13;1.13;;;0.40;;
22476;SDS011;65006;51.698;-0.292;2024-01-30T08:51:39;2.35;;;0.60;;
22476;SDS011;65006;51.698;-0.292;2024-01-30T08:54:05;2.10;;;0.60;;
22476;SDS011;65006;51.698;-0.292;2024-01-30T08:56:31;0.95;;;0.50;;
22476;SDS011;65006;51.698;-0.292;2024-01-30T08:58:57;1.98;;;0.70;;
22476;SDS011;65006;51.698;-0.292;2024-01-30T09:01:24;0.73;;;0.50;;
22476;SDS011;65006;51.698;-0.292;2024-01-30T09:03:50;1.48;;;0.60;;
22476;SDS011;65006;51.698;-0.292;2024-01-30T09:06:16;0.77;;;0.45;;
22476;SDS011;65006;51.698;-0.292;2024-01-30T09:08:42;1.83;;;0.50;;
22476;SDS011;65006;51.698;-0.292;2024-01-30T09:11:09;5.65;;;0.80;;
22476;SDS011;65006;51.698;-0.292;2024-01-30T09:13:35;4.32;;;0.70;;
22476;SDS011;65006;51.698;-0.292;2024-01-30T09:16:02;0.60;;;0.60;;
22476;SDS011;65006;51.698;-0.292;2024-01-30T09:18:28;0.82;;;0.55;;
22476;SDS011;65006;51.698;-0.292;2024-01-30T09:20:54;1.98;;;0.50;;
22476;SDS011;65006;51.698;-0.292;2024-01-30T09:23:20;1.90;;;0.50;;
22476;SDS011;65006;51.698;-0.292;2024-01-30T09:28:12;2.53;;;1.00;;
22476;SDS011;65006;51.698;-0.292;2024-01-30T09:30:38;3.38;;;1.15;;
22476;SDS011;65006;51.698;-0.292;2024-01-30T09:33:04;3.00;;;1.75;;
22476;SDS011;65006;51.698;-0.292;2024-01-30T09:35:31;4.22;;;1.98;;
22476;SDS011;65006;51.698;-0.292;2024-01-30T09:37:57;3.40;;;1.73;;
22476;SDS011;65006;51.698;-0.292;2024-01-30T09:40:23;4.53;;;2.45;;
22476;SDS011;65006;51.698;-0.292;2024-01-30T09:42:50;5.28;;;1.65;;
22476;SDS011;65006;51.698;-0.292;2024-01-30T09:47:43;6.55;;;1.60;;
22476;SDS011;65006;51.698;-0.292;2024-01-30T09:50:10;5.30;;;2.15;;
22476;SDS011;65006;51.698;-0.292;2024-01-30T09:52:37;2.03;;;1.33;;
22476;SDS011;65006;51.698;-0.292;2024-01-30T09:55:04;2.88;;;0.82;;
22476;SDS011;65006;51.698;-0.292;2024-01-30T09:59:56;0.70;;;0.30;;
22476;SDS011;65006;51.698;-0.292;2024-01-30T10:02:22;3.35;;;0.60;;
22476;SDS011;65006;51.698;-0.292;2024-01-30T10:04:49;1.42;;;0.50;;
22476;SDS011;65006;51.698;-0.292;2024-01-30T10:07:16;0.50;;;0.35;;
22476;SDS011;65006;51.698;-0.292;2024-01-30T10:09:42;1.42;;;0.77;;
22476;SDS011;65006;51.698;-0.292;2024-01-30T10:12:13;1.92;;;0.82;;
22476;SDS011;65006;51.698;-0.292;2024-01-30T10:14:39;2.95;;;0.60;;
22476;SDS011;65006;51.698;-0.292;2024-01-30T10:17:07;0.60;;;0.50;;
22476;SDS011;65006;51.698;-0.292;2024-01-30T10:19:35;1.48;;;0.30;;
22476;SDS011;65006;51.698;-0.292;2024-01-30T10:24:27;1.85;;;0.45;;
22476;SDS011;65006;51.698;-0.292;2024-01-30T10:26:54;0.52;;;0.38;;
22476;SDS011;65006;51.698;-0.292;2024-01-30T10:29:21;3.00;;;0.50;;
22476;SDS011;65006;51.698;-0.292;2024-01-30T10:32:08;0.70;;;0.43;;
22476;SDS011;65006;51.698;-0.292;2024-01-30T10:34:34;0.28;;;0.20;;
22476;SDS011;65006;51.698;-0.292;2024-01-30T10:37:05;0.10;;;0.10;;
22476;SDS011;65006;51.698;-0.292;2024-01-30T10:39:33;0.20;;;0.20;;
22476;SDS011;65006;51.698;-0.292;2024-01-30T10:42:03;0.20;;;0.20;;
22476;SDS011;65006;51.698;-0.292;2024-01-30T10:44:36;0.73;;;0.40;;
22476;SDS011;65006;51.698;-0.292;2024-01-30T10:47:03;0.47;;;0.30;;
22476;SDS011;65006;51.698;-0.292;2024-01-30T10:49:40;1.38;;;0.20;;
22476;SDS011;65006;51.698;-0.292;2024-01-30T10:52:11;0.20;;;0.20;;
22476;SDS011;65006;51.698;-0.292;2024-01-30T10:54:39;2.35;;;0.63;;
22476;SDS011;65006;51.698;-0.292;2024-01-30T10:57:06;0.28;;;0.20;;
22476;SDS011;65006;51.698;-0.292;2024-01-30T10:59:33;2.15;;;0.43;;
22476;SDS011;65006;51.698;-0.292;2024-01-30T11:02:00;1.63;;;0.30;;
22476;SDS011;65006;51.698;-0.292;2024-01-30T11:04:26;1.05;;;0.40;;
22476;SDS011;65006;51.698;-0.292;2024-01-30T11:06:52;0.40;;;0.22;;
22476;SDS011;65006;51.698;-0.292;2024-01-30T11:09:19;1.10;;;0.30;;
22476;SDS011;65006;51.698;-0.292;2024-01-30T11:11:49;0.85;;;0.30;;
22476;SDS011;65006;51.698;-0.292;2024-01-30T11:14:15;0.45;;;0.30;;
22476;SDS011;65006;51.698;-0.292;2024-01-30T11:16:41;2.20;;;0.30;;
22476;SDS011;65006;51.698;-0.292;2024-01-30T11:19:10;0.10;;;0.10;;
22476;SDS011;65006;51.698;-0.292;2024-01-30T11:21:43;0.40;;;0.22;;
22476;SDS011;65006;51.698;-0.292;2024-01-30T11:24:09;0.77;;;0.50;;
22476;SDS011;65006;51.698;-0.292;2024-01-30T11:26:35;0.30;;;0.30;;
22476;SDS011;65006;51.698;-0.292;2024-01-30T11:29:07;2.47;;;0.30;;
22476;SDS011;65006;51.698;-0.292;2024-01-30T11:31:34;0.20;;;0.20;;
22476;SDS011;65006;51.698;-0.292;2024-01-30T11:34:00;0.10;;;0.10;;
22476;SDS011;65006;51.698;-0.292;2024-01-30T11:36:26;0.10;;;0.10;;
22476;SDS011;65006;51.698;-0.292;2024-01-30T11:38:54;0.88;;;0.10;;
22476;SDS011;65006;51.698;-0.292;2024-01-30T11:41:20;2.15;;;0.20;;
22476;SDS011;65006;51.698;-0.292;2024-01-30T11:43:52;0.10;;;0.10;;
22476;SDS011;65006;51.698;-0.292;2024-01-30T11:46:19;0.45;;;0.20;;
22476;SDS011;65006;51.698;-0.292;2024-01-30T11:48:45;0.25;;;0.25;;
22476;SDS011;65006;51.698;-0.292;2024-01-30T11:51:12;0.00;;;0.00;;
22476;SDS011;65006;51.698;-0.292;2024-01-30T11:53:38;0.35;;;0.10;;
22476;SDS011;65006;51.698;-0.292;2024-01-30T11:56:06;0.20;;;0.15;;
22476;SDS011;65006;51.698;-0.292;2024-01-30T11:58:35;2.97;;;0.20;;
22476;SDS011;65006;51.698;-0.292;2024-01-30T12:01:01;0.20;;;0.10;;
22476;SDS011;65006;51.698;-0.292;2024-01-30T12:03:28;1.67;;;0.20;;
22476;SDS011;65006;51.698;-0.292;2024-01-30T12:05:56;0.28;;;0.20;;
22476;SDS011;65006;51.698;-0.292;2024-01-30T12:08:25;3.10;;;0.63;;
22476;SDS011;65006;51.698;-0.292;2024-01-30T12:13:18;1.58;;;0.20;;
22476;SDS011;65006;51.698;-0.292;2024-01-30T12:15:44;0.28;;;0.20;;
22476;SDS011;65006;51.698;-0.292;2024-01-30T12:18:10;1.38;;;0.20;;
22476;SDS011;65006;51.698;-0.292;2024-01-30T12:20:36;0.88;;;0.10;;
22476;SDS011;65006;51.698;-0.292;2024-01-30T12:23:02;1.08;;;0.30;;
22476;SDS011;65006;51.698;-0.292;2024-01-30T12:25:28;0.63;;;0.25;;
22476;SDS011;65006;51.698;-0.292;2024-01-30T12:27:54;0.15;;;0.13;;
22476;SDS011;65006;51.698;-0.292;2024-01-30T12:30:20;1.20;;;0.20;;
22476;SDS011;65006;51.698;-0.292;2024-01-30T12:32:47;1.83;;;0.30;;
22476;SDS011;65006;51.698;-0.292;2024-01-30T12:35:15;0.10;;;0.10;;
22476;SDS011;65006;51.698;-0.292;2024-01-30T12:40:07;0.80;;;0.22;;
22476;SDS011;65006;51.698;-0.292;2024-01-30T12:42:34;0.57;;;0.40;;
22476;SDS011;65006;51.698;-0.292;2024-01-30T12:45:02;0.30;;;0.30;;
22476;SDS011;65006;51.698;-0.292;2024-01-30T12:47:28;0.20;;;0.20;;
22476;SDS011;65006;51.698;-0.292;2024-01-30T12:49:54;2.05;;;0.30;;
22476;SDS011;65006;51.698;-0.292;2024-01-30T12:52:20;0.60;;;0.30;;
22476;SDS011;65006;51.698;-0.292;2024-01-30T12:57:19;0.57;;;0.32;;
22476;SDS011;65006;51.698;-0.292;2024-01-30T12:59:45;2.63;;;0.20;;
22476;SDS011;65006;51.698;-0.292;2024-01-30T13:02:14;0.38;;;0.30;;
22476;SDS011;65006;51.698;-0.292;2024-01-30T13:04:40;2.22;;;0.32;;
22476;SDS011;65006;51.698;-0.292;2024-01-30T13:07:07;0.30;;;0.30;;
22476;SDS011;65006;51.698;-0.292;2024-01-30T13:09:33;2.50;;;0.30;;
22476;SDS011;65006;51.698;-0.292;2024-01-30T13:11:59;1.25;;;0.40;;
22476;SDS011;65006;51.698;-0.292;2024-01-30T13:14:25;0.45;;;0.28;;
22476;SDS011;65006;51.698;-0.292;2024-01-30T13:16:51;1.98;;;0.30;;
22476;SDS011;65006;51.698;-0.292;2024-01-30T13:19:17;0.50;;;0.30;;
22476;SDS011;65006;51.698;-0.292;2024-01-30T13:21:44;1.30;;;0.28;;
22476;SDS011;65006;51.698;-0.292;2024-01-30T13:24:10;1.88;;;0.30;;
22476;SDS011;65006;51.698;-0.292;2024-01-30T13:26:39;0.95;;;0.40;;
22476;SDS011;65006;51.698;-0.292;2024-01-30T13:29:05;2.50;;;0.52;;
22476;SDS011;65006;51.698;-0.292;2024-01-30T13:31:31;2.72;;;0.35;;
22476;SDS011;65006;51.698;-0.292;2024-01-30T13:33:57;2.13;;;0.30;;
22476;SDS011;65006;51.698;-0.292;2024-01-30T13:36:23;0.35;;;0.30;;
22476;SDS011;65006;51.698;-0.292;2024-01-30T13:38:49;0.28;;;0.20;;
22476;SDS011;65006;51.698;-0.292;2024-01-30T13:41:15;0.75;;;0.30;;
22476;SDS011;65006;51.698;-0.292;2024-01-30T13:43:42;0.75;;;0.20;;
22476;SDS011;65006;51.698;-0.292;2024-01-30T13:46:08;1.60;;;0.30;;
22476;SDS011;65006;51.698;-0.292;2024-01-30T13:48:35;2.97;;;0.50;;
22476;SDS011;65006;51.698;-0.292;2024-01-30T13:51:01;0.55;;;0.30;;
22476;SDS011;65006;51.698;-0.292;2024-01-30T13:53:27;0.98;;;0.50;;
22476;SDS011;65006;51.698;-0.292;2024-01-30T13:55:53;1.40;;;0.40;;
22476;SDS011;65006;51.698;-0.292;2024-01-30T13:58:20;1.35;;;0.47;;
22476;SDS011;65006;51.698;-0.292;2024-01-30T14:00:46;2.70;;;0.50;;
22476;SDS011;65006;51.698;-0.292;2024-01-30T14:03:12;1.00;;;0.50;;
22476;SDS011;65006;51.698;-0.292;2024-01-30T14:05:38;0.63;;;0.60;;
22476;SDS011;65006;51.698;-0.292;2024-01-30T14:08:05;2.45;;;0.70;;
22476;SDS011;65006;51.698;-0.292;2024-01-30T14:10:32;2.22;;;0.80;;
22476;SDS011;65006;51.698;-0.292;2024-01-30T14:12:58;2.50;;;0.60;;
22476;SDS011;65006;51.698;-0.292;2024-01-30T14:15:24;1.95;;;0.40;;
22476;SDS011;65006;51.698;-0.292;2024-01-30T14:17:50;1.92;;;0.60;;
22476;SDS011;65006;51.698;-0.292;2024-01-30T14:20:16;0.65;;;0.50;;
22476;SDS011;65006;51.698;-0.292;2024-01-30T14:22:42;0.95;;;0.60;;
22476;SDS011;65006;51.698;-0.292;2024-01-30T14:25:08;2.72;;;0.68;;
22476;SDS011;65006;51.698;-0.292;2024-01-30T14:27:35;2.33;;;1.13;;
22476;SDS011;65006;51.698;-0.292;2024-01-30T14:30:01;3.53;;;0.93;;
22476;SDS011;65006;51.698;-0.292;2024-01-30T14:32:28;0.93;;;0.80;;
22476;SDS011;65006;51.698;-0.292;2024-01-30T14:34:54;1.02;;;0.50;;
22476;SDS011;65006;51.698;-0.292;2024-01-30T14:37:21;1.45;;;0.60;;
22476;SDS011;65006;51.698;-0.292;2024-01-30T14:42:15;1.05;;;0.50;;
22476;SDS011;65006;51.698;-0.292;2024-01-30T14:44:41;0.55;;;0.55;;
22476;SDS011;65006;51.698;-0.292;2024-01-30T14:47:07;2.15;;;0.55;;
22476;SDS011;65006;51.698;-0.292;2024-01-30T14:49:33;1.90;;;0.95;;
22476;SDS011;65006;51.698;-0.292;2024-01-30T14:51:59;2.70;;;0.80;;
22476;SDS011;65006;51.698;-0.292;2024-01-30T14:54:26;3.17;;;0.90;;